Time;durP1;ratioP1;P1;durP2;ratioP2;P2;SDS_P1;SDS_P2;PMS_P1;PMS_P2;Temp;Humidity;BMP_temperature;BMP_pressure;BME280_temperature;BME280_humidity;BME280_pressure;Samples;Min_cycle;Max_cycle;Signal;HPM_P1;HPM_P2
2021/05/07 00:01:36;;;;;;;4.55;3.42;;;16.60;79.60;;;;;;4978378;28;99430;-53
2021/05/07 00:04:08;;;;;;;3.55;2.60;;;16.70;79.30;;;;;;4972531;28;96235;-54
2021/05/07 00:06:38;;;;;;;3.42;2.88;;;16.70;79.30;;;;;;4967217;28;95791;-54
2021/05/07 00:09:08;;;;;;;4.00;3.03;;;16.70;79.20;;;;;;4968815;28;95838;-56
2021/05/07 00:11:38;;;;;;;3.80;3.30;;;16.70;79.10;;;;;;4969490;28;95989;-54
2021/05/07 00:14:07;;;;;;;3.08;2.60;;;16.70;79.20;;;;;;4986733;28;96120;-55
2021/05/07 00:16:39;;;;;;;3.88;2.97;;;16.70;79.10;;;;;;4985476;28;96068;-54
2021/05/07 00:19:10;;;;;;;2.45;2.13;;;16.80;79.00;;;;;;4978154;28;95404;-52
2021/05/07 00:21:45;;;;;;;4.15;3.25;;;16.80;78.90;;;;;;4969624;28;95910;-56
2021/05/07 00:24:15;;;;;;;;;;;16.80;78.80;;;;;;4965710;28;95325;-56
2021/05/07 00:26:46;;;;;;;2.75;2.55;;;16.80;78.70;;;;;;4962447;28;96115;-55
2021/05/07 00:29:16;;;;;;;2.30;2.17;;;16.80;78.70;;;;;;4967201;28;95691;-56
2021/05/07 00:31:47;;;;;;;2.67;2.23;;;16.90;78.80;;;;;;4962777;28;95892;-56
2021/05/07 00:34:18;;;;;;;3.05;2.30;;;16.90;78.80;;;;;;4976617;28;95937;-56
2021/05/07 00:36:48;;;;;;;3.47;2.80;;;16.90;78.90;;;;;;4989745;28;95771;-54
2021/05/07 00:39:19;;;;;;;3.42;2.63;;;16.90;79.10;;;;;;4970712;28;95957;-56
2021/05/07 00:41:49;;;;;;;4.25;3.03;;;17.00;79.30;;;;;;4982395;28;96172;-57
2021/05/07 00:44:20;;;;;;;3.22;2.58;;;17.00;79.20;;;;;;4969953;28;96369;-54
2021/05/07 00:46:51;;;;;;;3.80;2.60;;;17.10;79.30;;;;;;4956939;28;96700;-54
2021/05/07 00:49:22;;;;;;;2.97;2.65;;;17.10;79.30;;;;;;4965721;28;96093;-55
2021/05/07 00:51:52;;;;;;;3.28;2.22;;;17.10;79.20;;;;;;4973089;28;95880;-56
2021/05/07 00:54:23;;;;;;;2.75;2.40;;;17.20;79.20;;;;;;4972736;28;95690;-54
2021/05/07 00:56:54;;;;;;;2.65;2.30;;;17.20;79.10;;;;;;4990975;28;96647;-56
2021/05/07 00:59:23;;;;;;;4.13;2.65;;;17.30;79.10;;;;;;4978144;28;95338;-56
2021/05/07 01:01:54;;;;;;;5.32;2.47;;;17.30;78.90;;;;;;4964586;28;97340;-55
2021/05/07 01:04:26;;;;;;;3.65;2.70;;;17.40;78.90;;;;;;4964680;28;95953;-53
2021/05/07 01:06:56;;;;;;;3.60;2.30;;;17.40;78.80;;;;;;4986897;28;95460;-57
2021/05/07 01:09:29;;;;;;;3.33;2.55;;;17.50;78.70;;;;;;4957050;28;95537;-56
2021/05/07 01:11:59;;;;;;;2.67;2.25;;;17.60;78.80;;;;;;4971775;28;96848;-55
2021/05/07 01:14:31;;;;;;;3.58;2.70;;;17.60;78.80;;;;;;4963582;28;95993;-57
2021/05/07 01:17:01;;;;;;;3.33;3.03;;;17.60;78.70;;;;;;4940402;28;95887;-56
2021/05/07 01:19:32;;;;;;;3.05;2.72;;;17.70;78.70;;;;;;4954302;28;97219;-57
2021/05/07 01:22:02;;;;;;;4.03;3.00;;;17.70;78.50;;;;;;4972259;28;96359;-56
2021/05/07 01:24:33;;;;;;;3.05;2.65;;;17.80;78.50;;;;;;4948816;28;95607;-56
2021/05/07 01:27:05;;;;;;;4.25;2.53;;;17.80;78.20;;;;;;4962241;28;95408;-57
2021/05/07 01:29:35;;;;;;;3.28;2.72;;;17.90;78.20;;;;;;4964948;28;96264;-54
2021/05/07 01:32:06;;;;;;;4.70;2.35;;;17.90;78.10;;;;;;4968843;28;95860;-55
2021/05/07 01:34:40;;;;;;;3.85;2.50;;;18.00;78.10;;;;;;4982408;28;95885;-55
2021/05/07 01:37:11;;;;;;;3.13;2.65;;;18.00;78.10;;;;;;4957755;28;96685;-55
2021/05/07 01:39:42;;;;;;;4.15;2.83;;;18.10;78.20;;;;;;4973179;28;95740;-56
2021/05/07 01:42:13;;;;;;;6.90;3.05;;;18.10;78.10;;;;;;4971102;28;95860;-57
2021/05/07 01:44:44;;;;;;;3.47;2.72;;;18.20;78.40;;;;;;4981969;28;97647;-57
2021/05/07 01:47:16;;;;;;;3.07;2.73;;;18.20;78.30;;;;;;4952787;28;96158;-57
2021/05/07 01:49:47;;;;;;;3.42;2.55;;;18.40;78.40;;;;;;4981650;28;96866;-54
2021/05/07 01:52:17;;;;;;;4.50;2.75;;;18.40;78.30;;;;;;4962762;28;97718;-58
2021/05/07 01:54:50;;;;;;;3.80;2.37;;;18.70;78.70;;;;;;4955785;28;96533;-56
2021/05/07 01:57:21;;;;;;;4.05;2.53;;;19.00;78.30;;;;;;4979701;28;96076;-56
2021/05/07 01:59:51;;;;;;;3.03;2.25;;;19.20;77.70;;;;;;4973329;28;95785;-57
2021/05/07 02:02:21;;;;;;;4.50;1.92;;;19.40;77.20;;;;;;4959192;28;97139;-56
2021/05/07 02:04:54;;;;;;;2.65;2.05;;;19.60;77.10;;;;;;4977340;28;98735;-56
2021/05/07 02:07:24;;;;;;;4.30;2.70;;;19.70;76.60;;;;;;4977464;28;95744;-57
2021/05/07 02:09:55;;;;;;;4.72;2.28;;;19.90;76.40;;;;;;4957545;28;95894;-57
2021/05/07 02:12:28;;;;;;;4.13;2.38;;;20.10;76.10;;;;;;4965936;28;96036;-56
2021/05/07 02:14:59;;;;;;;3.08;1.73;;;20.20;75.80;;;;;;4958386;28;96075;-56
2021/05/07 02:17:31;;;;;;;2.20;2.00;;;20.30;75.10;;;;;;4994175;28;95892;-57
2021/05/07 02:20:04;;;;;;;3.10;2.47;;;20.40;75.10;;;;;;4989696;28;95763;-58
2021/05/07 02:22:35;;;;;;;2.10;1.75;;;20.50;74.90;;;;;;4983153;28;96479;-57
2021/05/07 02:25:08;;;;;;;2.47;2.28;;;20.70;74.70;;;;;;4978113;28;95842;-56
2021/05/07 02:27:38;;;;;;;4.90;1.92;;;20.80;74.40;;;;;;4993649;28;95826;-55
2021/05/07 02:30:10;;;;;;;2.40;1.83;;;20.90;74.20;;;;;;4966464;28;96408;-57
2021/05/07 02:32:42;;;;;;;2.58;1.65;;;21.00;74.10;;;;;;4993679;28;98131;-57
2021/05/07 02:35:12;;;;;;;;;;;21.20;73.80;;;;;;4995402;28;97479;-56
2021/05/07 02:37:43;;;;;;;1.70;1.42;;;21.20;73.50;;;;;;4962407;28;95258;-55
2021/05/07 02:40:13;;;;;;;2.90;1.50;;;21.40;73.30;;;;;;4977066;28;96347;-54
2021/05/07 02:42:42;;;;;;;3.13;2.17;;;21.40;73.20;;;;;;4968435;28;96783;-57
2021/05/07 02:45:14;;;;;;;;;;;21.40;71.10;;;;;;4982355;28;96175;-53
2021/05/07 02:47:45;;;;;;;3.67;2.88;;;21.30;71.70;;;;;;4985679;28;99782;-52
2021/05/07 02:50:18;;;;;;;2.63;2.03;;;21.20;72.20;;;;;;4973001;28;96098;-56
2021/05/07 02:52:48;;;;;;;2.77;2.43;;;21.10;72.70;;;;;;4987120;28;99216;-51
2021/05/07 02:55:19;;;;;;;17.85;3.40;;;21.00;71.90;;;;;;4980832;28;96032;-54
2021/05/07 02:57:50;;;;;;;2.90;2.40;;;21.00;72.20;;;;;;4965331;28;97923;-51
2021/05/07 03:00:22;;;;;;;2.53;2.33;;;20.90;72.70;;;;;;4972723;28;95701;-56
2021/05/07 03:02:52;;;;;;;3.15;2.10;;;21.00;72.70;;;;;;4971234;28;99442;-52
2021/05/07 03:05:23;;;;;;;;;;;21.00;72.90;;;;;;4972796;28;96248;-52
2021/05/07 03:07:53;;;;;;;4.28;2.53;;;20.90;72.90;;;;;;4971247;28;95395;-50
2021/05/07 03:10:23;;;;;;;2.47;2.25;;;20.90;73.00;;;;;;4968260;28;95799;-54
2021/05/07 03:12:53;;;;;;;4.55;1.95;;;20.90;73.10;;;;;;4972552;28;95983;-53
2021/05/07 03:15:25;;;;;;;7.00;2.50;;;20.90;73.10;;;;;;4970349;28;95903;-55
2021/05/07 03:17:56;;;;;;;4.75;2.45;;;20.90;73.40;;;;;;4978020;28;95941;-55
2021/05/07 03:20:26;;;;;;;;;;;20.90;73.10;;;;;;4983850;28;95342;-57
2021/05/07 03:22:57;;;;;;;3.10;2.17;;;21.00;73.00;;;;;;4972727;28;95785;-56
2021/05/07 03:25:27;;;;;;;5.80;4.32;;;20.90;72.60;;;;;;4972829;28;95746;-54
2021/05/07 03:27:58;;;;;;;5.13;2.77;;;20.80;73.00;;;;;;4972688;28;96005;-56
2021/05/07 03:30:28;;;;;;;3.67;3.10;;;20.80;73.00;;;;;;4971530;28;95754;-51
2021/05/07 03:32:59;;;;;;;5.53;2.83;;;20.70;73.10;;;;;;4968822;28;98606;-57
2021/05/07 03:35:30;;;;;;;5.63;2.38;;;20.70;73.20;;;;;;4961540;28;95827;-54
2021/05/07 03:38:01;;;;;;;4.25;2.60;;;20.70;73.30;;;;;;4964397;28;95810;-52
2021/05/07 03:40:32;;;;;;;2.60;2.40;;;20.70;73.20;;;;;;4976291;28;95936;-56
2021/05/07 03:43:03;;;;;;;5.70;3.20;;;20.70;73.30;;;;;;4978199;28;96080;-57
2021/05/07 03:45:35;;;;;;;5.03;2.47;;;20.70;73.40;;;;;;4972179;28;96065;-52
2021/05/07 03:48:16;;;;;;;2.65;2.00;;;20.70;73.30;;;;;;4978943;28;95934;-57
2021/05/07 03:50:51;;;;;;;;;;;20.60;73.70;;;;;;4973025;28;96011;-56
2021/05/07 03:53:22;;;;;;;3.22;2.70;;;20.60;73.90;;;;;;4980555;28;95911;-53
2021/05/07 03:55:57;;;;;;;2.72;2.40;;;20.60;73.90;;;;;;4957205;28;98005;-53
2021/05/07 03:58:27;;;;;;;2.97;2.30;;;20.50;73.80;;;;;;4981524;28;96093;-54
2021/05/07 04:00:57;;;;;;;6.47;2.95;;;20.50;74.10;;;;;;4973502;28;98515;-56
2021/05/07 04:03:28;;;;;;;4.90;3.25;;;20.50;74.20;;;;;;4992389;28;96158;-54
2021/05/07 04:05:58;;;;;;;5.78;3.45;;;20.40;74.80;;;;;;4972511;28;95903;-56
2021/05/07 04:08:32;;;;;;;5.75;3.58;;;20.50;74.20;;;;;;4976647;28;95392;-54
2021/05/07 04:13:40;;;;;;;6.20;4.15;;;20.40;74.20;;;;;;4976908;28;98434;-55
2021/05/07 04:16:11;;;;;;;4.85;4.15;;;20.40;74.30;;;;;;4970446;28;95714;-53
2021/05/07 04:18:44;;;;;;;4.57;3.88;;;20.40;74.30;;;;;;4980555;28;95996;-56
2021/05/07 04:21:16;;;;;;;5.75;3.92;;;20.40;75.10;;;;;;4976406;28;101170;-58
2021/05/07 04:23:48;;;;;;;4.88;3.97;;;20.40;74.40;;;;;;4975080;28;96400;-55
2021/05/07 04:26:19;;;;;;;5.38;3.47;;;20.30;74.30;;;;;;4975372;28;96745;-54
2021/05/07 04:28:49;;;;;;;5.13;4.28;;;20.40;74.40;;;;;;4979789;28;95327;-53
2021/05/07 04:31:22;;;;;;;5.60;4.47;;;20.40;74.70;;;;;;4972153;28;95999;-52
2021/05/07 04:33:53;;;;;;;4.05;3.70;;;20.40;74.80;;;;;;4979163;28;96858;-53
2021/05/07 04:36:24;;;;;;;5.40;4.38;;;20.40;74.60;;;;;;4977736;28;96956;-55
2021/05/07 04:38:55;;;;;;;5.93;4.00;;;20.40;74.80;;;;;;4976037;28;95981;-51
2021/05/07 04:41:25;;;;;;;5.83;4.07;;;20.30;74.90;;;;;;4973178;28;95774;-55
2021/05/07 04:44:01;;;;;;;6.40;4.53;;;20.40;74.90;;;;;;4980243;28;96987;-55
2021/05/07 04:46:33;;;;;;;5.00;4.13;;;20.40;74.90;;;;;;4972759;28;99408;-61
2021/05/07 04:49:03;;;;;;;5.07;3.90;;;20.40;74.90;;;;;;4980404;28;95874;-51
2021/05/07 04:51:32;;;;;;;7.97;4.70;;;20.40;74.80;;;;;;4959800;28;95737;-52
2021/05/07 04:54:03;;;;;;;7.18;5.03;;;20.30;74.80;;;;;;4979412;28;96675;-53
2021/05/07 04:56:35;;;;;;;7.35;4.25;;;20.40;74.90;;;;;;4970965;28;96096;-54
2021/05/07 04:59:05;;;;;;;6.65;4.35;;;20.40;74.80;;;;;;4976698;28;96220;-55
2021/05/07 05:01:36;;;;;;;8.40;5.35;;;20.40;74.90;;;;;;4973642;28;95975;-53
2021/05/07 05:04:06;;;;;;;;;;;20.40;74.90;;;;;;4981406;28;96077;-54
2021/05/07 05:06:37;;;;;;;4.10;3.58;;;20.40;75.00;;;;;;4982040;28;96347;-54
2021/05/07 05:09:07;;;;;;;6.78;4.70;;;20.50;75.40;;;;;;4976742;28;95950;-57
2021/05/07 05:11:36;;;;;;;8.07;3.25;;;20.40;75.00;;;;;;4976240;28;95872;-55
2021/05/07 05:14:09;;;;;;;4.60;3.72;;;20.40;74.90;;;;;;4971577;28;95919;-57
2021/05/07 05:16:40;;;;;;;5.68;4.07;;;20.40;75.00;;;;;;4972626;28;95480;-55
2021/05/07 05:19:11;;;;;;;6.40;4.97;;;20.40;74.90;;;;;;4976947;28;95375;-53
2021/05/07 05:21:43;;;;;;;4.57;3.72;;;20.40;75.10;;;;;;4984199;28;96073;-53
2021/05/07 05:24:14;;;;;;;5.40;4.82;;;20.40;75.20;;;;;;4979593;28;96322;-50
2021/05/07 05:26:45;;;;;;;5.47;3.92;;;20.40;75.30;;;;;;4982778;28;95838;-52
2021/05/07 05:29:16;;;;;;;5.25;3.33;;;20.30;75.30;;;;;;4977033;28;95798;-54
2021/05/07 05:31:46;;;;;;;7.63;3.88;;;20.50;75.10;;;;;;4975521;28;96037;-52
2021/05/07 05:34:16;;;;;;;4.22;3.17;;;20.60;74.80;;;;;;4979312;28;96511;-53
2021/05/07 05:36:48;;;;;;;4.63;3.67;;;20.60;74.70;;;;;;4983572;28;96193;-50
2021/05/07 05:39:17;;;;;;;3.72;3.28;;;20.60;74.80;;;;;;4979687;28;96903;-52
2021/05/07 05:41:48;;;;;;;5.57;3.88;;;20.60;74.80;;;;;;4981983;28;96281;-55
2021/05/07 05:44:19;;;;;;;4.60;3.40;;;20.60;74.80;;;;;;4980682;28;96615;-53
2021/05/07 05:46:49;;;;;;;;;;;20.60;75.20;;;;;;4971881;28;95699;-52
2021/05/07 05:49:20;;;;;;;3.35;3.05;;;20.60;75.30;;;;;;4980335;28;95526;-53
2021/05/07 05:51:50;;;;;;;6.28;3.70;;;20.60;75.30;;;;;;4998356;28;96976;-54
2021/05/07 05:54:20;;;;;;;4.97;3.45;;;20.70;75.50;;;;;;4949970;28;96811;-53
2021/05/07 05:56:51;;;;;;;5.93;3.67;;;20.70;75.60;;;;;;4981223;28;95940;-50
2021/05/07 05:59:22;;;;;;;12.65;4.35;;;20.70;75.50;;;;;;4977147;28;96693;-52
2021/05/07 06:01:52;;;;;;;4.38;3.45;;;20.60;75.80;;;;;;4973179;28;95596;-52
2021/05/07 06:04:23;;;;;;;5.55;3.58;;;20.70;75.90;;;;;;4974633;28;96667;-49
2021/05/07 06:06:53;;;;;;;6.53;3.87;;;20.60;76.10;;;;;;4963982;28;97057;-54
2021/05/07 06:09:23;;;;;;;5.63;3.50;;;20.60;76.30;;;;;;4993890;28;97107;-51
2021/05/07 06:11:54;;;;;;;8.32;4.28;;;20.50;76.10;;;;;;4968006;28;95394;-53
2021/05/07 06:14:24;;;;;;;5.53;3.65;;;20.50;76.40;;;;;;4977484;28;96259;-52
2021/05/07 06:17:09;;;;;;;12.60;3.63;;;20.50;76.70;;;;;;4976739;28;97591;-53
2021/05/07 06:19:41;;;;;;;4.50;3.80;;;20.50;76.70;;;;;;4985372;28;97187;-52
2021/05/07 06:22:13;;;;;;;5.72;4.13;;;20.50;76.50;;;;;;4979525;28;96948;-52
2021/05/07 06:24:45;;;;;;;;;;;20.50;76.40;;;;;;4978438;28;96479;-52
2021/05/07 06:27:16;;;;;;;10.27;4.50;;;20.50;76.40;;;;;;4982024;28;103552;-55
2021/05/07 06:29:45;;;;;;;4.80;3.80;;;20.50;76.40;;;;;;4982175;28;95660;-55
2021/05/07 06:32:15;;;;;;;5.88;3.63;;;20.50;76.20;;;;;;4972224;28;95905;-51
2021/05/07 06:34:47;;;;;;;4.82;3.50;;;20.50;76.10;;;;;;4980671;28;97120;-53
2021/05/07 06:37:17;;;;;;;4.65;3.67;;;20.60;76.10;;;;;;4973960;28;96175;-55
2021/05/07 06:39:47;;;;;;;6.38;3.90;;;20.50;76.10;;;;;;4981885;28;96883;-54
2021/05/07 06:42:18;;;;;;;4.63;4.05;;;20.60;76.20;;;;;;4995481;28;97160;-54
2021/05/07 06:44:49;;;;;;;6.30;4.15;;;20.50;76.20;;;;;;4980029;28;96144;-50
2021/05/07 06:47:20;;;;;;;4.70;4.18;;;20.50;76.10;;;;;;4960014;28;98117;-56
2021/05/07 06:49:50;;;;;;;;;;;20.50;76.10;;;;;;4984560;28;95324;-50
2021/05/07 06:52:20;;;;;;;5.25;3.35;;;20.40;76.20;;;;;;4979877;28;95866;-50
2021/05/07 06:54:53;;;;;;;8.48;4.28;;;20.40;76.40;;;;;;4978419;28;98109;-51
2021/05/07 06:57:24;;;;;;;6.40;4.75;;;20.40;76.40;;;;;;4983133;28;100072;-54
2021/05/07 06:59:54;;;;;;;5.38;3.90;;;20.40;76.60;;;;;;4998751;28;95371;-52
2021/05/07 07:02:26;;;;;;;6.43;3.30;;;20.40;76.40;;;;;;4976318;28;95282;-54
2021/05/07 07:04:57;;;;;;;4.55;4.10;;;20.40;76.70;;;;;;4982944;28;96667;-53
2021/05/07 07:07:28;;;;;;;4.15;3.58;;;20.40;76.60;;;;;;4981792;28;95360;-57
2021/05/07 07:10:17;;;;;;;7.88;3.70;;;20.40;76.50;;;;;;4980644;28;95695;-54
2021/05/07 07:12:47;;;;;;;5.07;3.55;;;20.40;76.60;;;;;;4982464;28;96179;-51
2021/05/07 07:15:18;;;;;;;4.45;3.85;;;20.40;76.70;;;;;;4980270;28;95741;-54
2021/05/07 07:17:48;;;;;;;7.50;4.72;;;20.40;76.70;;;;;;4981177;28;97211;-54
2021/05/07 07:20:20;;;;;;;;;;;20.40;76.40;;;;;;4985268;28;96099;-50
2021/05/07 07:22:51;;;;;;;4.63;3.28;;;20.30;76.70;;;;;;4983446;28;96244;-50
2021/05/07 07:25:23;;;;;;;5.03;3.88;;;20.30;76.70;;;;;;4983106;28;96526;-50
2021/05/07 07:27:53;;;;;;;5.10;3.88;;;20.20;76.90;;;;;;4977806;28;96789;-51
2021/05/07 07:30:23;;;;;;;5.47;4.22;;;20.20;76.90;;;;;;4980710;28;98710;-52
2021/05/07 07:32:53;;;;;;;5.40;3.60;;;20.10;77.10;;;;;;4981315;28;98168;-53
2021/05/07 07:35:24;;;;;;;5.05;3.85;;;20.10;77.00;;;;;;4985877;28;95913;-51
2021/05/07 07:37:56;;;;;;;15.15;4.20;;;20.10;77.20;;;;;;4966483;28;95860;-50
2021/05/07 07:40:26;;;;;;;4.72;4.10;;;20.00;77.20;;;;;;4984022;28;96010;-52
2021/05/07 07:43:00;;;;;;;6.50;4.45;;;20.00;77.20;;;;;;4991106;28;96214;-52
2021/05/07 07:45:30;;;;;;;8.10;4.57;;;20.00;77.20;;;;;;4976748;28;95848;-51
2021/05/07 07:48:00;;;;;;;4.68;3.40;;;19.90;77.30;;;;;;4980719;28;95734;-54
2021/05/07 07:50:31;;;;;;;10.70;4.75;;;20.00;77.20;;;;;;4967869;28;95805;-54
2021/05/07 07:53:01;;;;;;;4.32;3.85;;;19.90;77.30;;;;;;4984151;28;95822;-56
2021/05/07 07:55:32;;;;;;;6.35;4.10;;;20.00;77.30;;;;;;4978808;28;96577;-52
2021/05/07 07:58:01;;;;;;;8.23;3.92;;;19.90;77.40;;;;;;4982084;28;95728;-54
2021/05/07 08:00:32;;;;;;;4.75;3.30;;;19.90;77.40;;;;;;4972012;28;95354;-50
2021/05/07 08:03:05;;;;;;;4.70;4.00;;;19.80;77.70;;;;;;4982483;28;95757;-52
2021/05/07 08:05:37;;;;;;;6.95;4.05;;;19.80;77.70;;;;;;4981608;28;95995;-50
2021/05/07 08:08:06;;;;;;;8.60;4.35;;;19.80;77.80;;;;;;5000002;28;96166;-54
2021/05/07 08:10:36;;;;;;;5.55;4.45;;;19.80;77.60;;;;;;4966145;28;95945;-54
2021/05/07 08:13:06;;;;;;;8.27;4.00;;;19.80;77.70;;;;;;5000012;28;95779;-51
2021/05/07 08:15:37;;;;;;;;;;;19.80;77.70;;;;;;4976358;28;96765;-51
2021/05/07 08:18:08;;;;;;;5.22;3.90;;;19.70;77.50;;;;;;4981537;28;96391;-52
2021/05/07 08:20:39;;;;;;;4.82;3.72;;;19.70;77.60;;;;;;4996679;28;96082;-50
2021/05/07 08:23:10;;;;;;;6.07;4.30;;;19.70;77.70;;;;;;4985388;28;95618;-51
2021/05/07 08:25:40;;;;;;;5.03;3.53;;;19.60;77.80;;;;;;4965870;28;95882;-51
2021/05/07 08:28:11;;;;;;;4.57;4.03;;;19.60;78.00;;;;;;4985707;28;95905;-51
2021/05/07 08:30:43;;;;;;;8.65;5.70;;;19.60;77.80;;;;;;4977341;28;95718;-50
2021/05/07 08:33:13;;;;;;;8.65;4.40;;;19.60;78.00;;;;;;4972094;28;96129;-53
2021/05/07 08:35:44;;;;;;;4.88;3.95;;;19.60;77.90;;;;;;4973944;28;96421;-53
2021/05/07 08:38:15;;;;;;;3.95;3.55;;;19.50;77.90;;;;;;4978876;28;95876;-55
2021/05/07 08:40:45;;;;;;;7.82;3.72;;;19.60;78.20;;;;;;4959910;28;96245;-51
2021/05/07 08:43:16;;;;;;;4.50;3.30;;;19.60;77.70;;;;;;4965113;28;96011;-54
2021/05/07 08:45:47;;;;;;;3.97;3.53;;;19.70;77.50;;;;;;4985719;28;98108;-53
2021/05/07 08:48:18;;;;;;;5.45;3.63;;;19.70;77.50;;;;;;4978299;28;95673;-55
2021/05/07 08:50:49;;;;;;;7.35;4.10;;;19.70;77.30;;;;;;4971625;28;95625;-55
2021/05/07 08:53:20;;;;;;;5.88;3.70;;;19.70;77.20;;;;;;4978796;28;95921;-54
2021/05/07 08:55:52;;;;;;;5.97;3.95;;;19.80;77.20;;;;;;4976576;28;96515;-55
2021/05/07 08:58:24;;;;;;;5.40;3.90;;;19.80;77.10;;;;;;4979396;28;95948;-54
2021/05/07 09:00:53;;;;;;;5.40;4.22;;;19.80;77.10;;;;;;4972662;28;95759;-54
2021/05/07 09:03:24;;;;;;;4.95;3.67;;;19.80;77.10;;;;;;4977621;28;96056;-52
2021/05/07 09:05:59;;;;;;;5.80;3.45;;;19.80;77.00;;;;;;4961467;28;98207;-53
2021/05/07 09:08:32;;;;;;;5.57;3.75;;;19.80;77.00;;;;;;4972949;28;95910;-53
2021/05/07 09:11:04;;;;;;;3.78;2.75;;;19.80;77.00;;;;;;4977589;28;96263;-55
2021/05/07 09:13:34;;;;;;;3.93;3.50;;;19.80;77.20;;;;;;4977147;28;96811;-55
2021/05/07 09:16:08;;;;;;;4.88;3.58;;;19.70;77.30;;;;;;4975524;28;95905;-55
2021/05/07 09:18:45;;;;;;;4.65;3.58;;;19.70;77.40;;;;;;4976055;28;96406;-53
2021/05/07 09:21:18;;;;;;;7.10;4.47;;;19.70;77.60;;;;;;4979116;28;96408;-56
2021/05/07 09:23:51;;;;;;;5.50;4.38;;;19.60;77.60;;;;;;4971163;28;95420;-53
2021/05/07 09:26:22;;;;;;;7.47;5.78;;;19.60;77.80;;;;;;4976516;28;96160;-54
2021/05/07 09:29:03;;;;;;;5.45;3.92;;;19.60;77.70;;;;;;4975158;28;96353;-53
2021/05/07 09:31:45;;;;;;;5.82;4.05;;;19.60;77.90;;;;;;4958212;28;95877;-55
2021/05/07 09:34:16;;;;;;;6.03;4.15;;;19.60;78.80;;;;;;4976512;28;96303;-56
2021/05/07 09:36:48;;;;;;;5.15;3.95;;;19.60;78.20;;;;;;4978190;28;96393;-56
2021/05/07 09:39:21;;;;;;;;;;;19.60;78.40;;;;;;4955441;28;95981;-53
2021/05/07 09:41:52;;;;;;;7.30;4.22;;;19.60;78.40;;;;;;4976644;28;95821;-55
2021/05/07 09:44:25;;;;;;;4.82;3.67;;;19.60;78.40;;;;;;4991396;28;96723;-55
2021/05/07 09:46:56;;;;;;;8.75;4.72;;;19.50;78.40;;;;;;4972868;28;97095;-54
2021/05/07 09:49:28;;;;;;;7.68;4.03;;;19.50;78.40;;;;;;4974881;28;95474;-55
2021/05/07 09:51:59;;;;;;;5.22;4.10;;;19.50;78.40;;;;;;4979053;28;95608;-57
2021/05/07 09:54:29;;;;;;;5.32;4.13;;;19.50;78.40;;;;;;4976399;28;96163;-55
2021/05/07 09:57:01;;;;;;;8.10;4.30;;;19.50;78.40;;;;;;4971703;28;95976;-56
2021/05/07 09:59:30;;;;;;;6.28;3.67;;;19.50;78.30;;;;;;4973088;28;96563;-55
2021/05/07 10:02:01;;;;;;;5.97;4.10;;;19.50;78.50;;;;;;4973093;28;96100;-53
2021/05/07 10:04:33;;;;;;;;;;;19.50;78.50;;;;;;4974118;28;96664;-54
2021/05/07 10:07:03;;;;;;;9.05;4.15;;;19.40;78.50;;;;;;4980150;28;95981;-56
2021/05/07 10:09:35;;;;;;;6.97;4.32;;;19.40;78.60;;;;;;4960904;28;96843;-54
2021/05/07 10:12:08;;;;;;;5.82;3.53;;;19.40;78.60;;;;;;4949485;28;97099;-55
2021/05/07 10:14:46;;;;;;;5.25;3.83;;;19.40;78.60;;;;;;4975066;28;95948;-56
2021/05/07 10:17:17;;;;;;;7.25;4.63;;;19.40;78.60;;;;;;4978129;28;95845;-51
2021/05/07 10:19:50;;;;;;;6.18;4.53;;;19.30;78.60;;;;;;4977704;28;95829;-50
2021/05/07 10:22:36;;;;;;;6.78;4.43;;;19.20;78.70;;;;;;4980625;28;95674;-51
2021/05/07 10:25:19;;;;;;;5.57;4.55;;;19.20;78.90;;;;;;4999444;28;96150;-52
2021/05/07 10:27:54;;;;;;;6.28;4.07;;;19.10;79.30;;;;;;4981598;28;96705;-55
2021/05/07 10:30:36;;;;;;;7.40;4.07;;;19.00;79.40;;;;;;4965478;28;98559;-51
2021/05/07 10:33:16;;;;;;;10.38;4.88;;;19.00;79.60;;;;;;4975000;28;99160;-52
2021/05/07 10:35:55;;;;;;;6.53;4.10;;;19.00;79.70;;;;;;4977647;28;95865;-52
2021/05/07 10:38:26;;;;;;;5.78;4.60;;;19.00;79.70;;;;;;4981876;28;96463;-53
2021/05/07 10:41:09;;;;;;;7.28;5.38;;;18.90;79.70;;;;;;4977032;28;95886;-52
2021/05/07 10:43:44;;;;;;;7.75;4.30;;;18.90;79.80;;;;;;4982346;28;96265;-52
2021/05/07 10:46:29;;;;;;;7.45;4.80;;;18.90;80.00;;;;;;4968439;28;96060;-51
2021/05/07 10:49:00;;;;;;;8.25;4.40;;;18.90;80.00;;;;;;4974376;28;96076;-51
2021/05/07 10:51:30;;;;;;;7.90;4.43;;;18.90;80.00;;;;;;4976285;28;95977;-51
2021/05/07 10:54:14;;;;;;;8.30;4.93;;;18.80;80.10;;;;;;4971835;28;98778;-57
2021/05/07 10:56:45;;;;;;;7.47;4.53;;;18.80;80.30;;;;;;4975124;28;95689;-52
2021/05/07 10:59:20;;;;;;;10.32;4.75;;;18.90;80.30;;;;;;4996219;28;95916;-53
2021/05/07 11:02:01;;;;;;;10.80;5.30;;;19.00;80.10;;;;;;4967369;28;96016;-56
2021/05/07 11:04:41;;;;;;;;;;;19.00;79.90;;;;;;4967354;28;96029;-54
2021/05/07 11:07:11;;;;;;;8.30;5.60;;;19.10;79.80;;;;;;4979558;28;95697;-51
2021/05/07 11:09:43;;;;;;;7.83;4.77;;;19.10;79.60;;;;;;4973987;28;96665;-50
2021/05/07 11:12:14;;;;;;;6.78;5.00;;;19.00;79.70;;;;;;4965782;28;96270;-56
2021/05/07 11:14:45;;;;;;;7.55;4.68;;;18.90;79.90;;;;;;4969092;28;95960;-51
2021/05/07 11:17:19;;;;;;;8.90;5.28;;;18.90;80.00;;;;;;4960194;28;96072;-51
2021/05/07 11:19:51;;;;;;;10.25;5.63;;;18.80;80.00;;;;;;4971787;28;96618;-53
2021/05/07 11:22:28;;;;;;;7.70;5.07;;;18.80;80.10;;;;;;4976524;28;96517;-51
2021/05/07 11:24:58;;;;;;;8.93;5.40;;;18.70;80.00;;;;;;4968958;28;95721;-51
2021/05/07 11:27:30;;;;;;;7.90;5.10;;;18.70;80.00;;;;;;4968273;28;95622;-52
2021/05/07 11:30:11;;;;;;;9.18;5.97;;;18.70;80.10;;;;;;4977714;28;95510;-51
2021/05/07 11:32:42;;;;;;;10.02;6.22;;;18.70;80.10;;;;;;4963388;28;96504;-52
2021/05/07 11:35:13;;;;;;;9.93;7.05;;;18.70;80.10;;;;;;4969050;28;95626;-51
2021/05/07 11:37:43;;;;;;;10.82;5.97;;;18.60;80.00;;;;;;4963497;28;95874;-51
2021/05/07 11:40:16;;;;;;;12.77;5.78;;;18.60;80.20;;;;;;4972132;28;95873;-54
2021/05/07 11:42:50;;;;;;;9.20;5.82;;;18.60;80.10;;;;;;4967462;28;99878;-50
2021/05/07 11:45:23;;;;;;;11.45;5.60;;;18.50;80.10;;;;;;4965665;28;95734;-51
2021/05/07 11:47:54;;;;;;;9.57;6.15;;;18.50;80.10;;;;;;4966686;28;96731;-54
2021/05/07 11:50:25;;;;;;;11.93;6.30;;;18.50;80.10;;;;;;4965935;28;97988;-52
2021/05/07 11:52:55;;;;;;;9.45;5.72;;;18.50;80.10;;;;;;4952094;28;97330;-52
2021/05/07 11:55:32;;;;;;;8.93;6.43;;;18.40;80.00;;;;;;4969579;28;99649;-52
2021/05/07 11:58:09;;;;;;;8.13;5.63;;;18.40;80.00;;;;;;4971349;28;95406;-56
2021/05/07 12:00:40;;;;;;;13.57;6.68;;;18.30;80.00;;;;;;4975803;28;95942;-51
2021/05/07 12:03:16;;;;;;;10.35;6.40;;;18.40;80.10;;;;;;4970994;28;95456;-52
2021/05/07 12:05:47;;;;;;;9.80;6.30;;;18.30;80.10;;;;;;4969170;28;95714;-56
2021/05/07 12:08:27;;;;;;;9.93;6.90;;;18.30;80.10;;;;;;4966100;28;95307;-50
2021/05/07 12:11:12;;;;;;;8.30;6.22;;;18.30;80.00;;;;;;4966550;28;96078;-55
2021/05/07 12:13:44;;;;;;;8.85;6.20;;;18.30;80.00;;;;;;4968725;28;95634;-56
2021/05/07 12:16:16;;;;;;;9.73;6.75;;;18.30;80.00;;;;;;4971025;28;95848;-54
2021/05/07 12:18:52;;;;;;;11.90;7.90;;;18.30;80.00;;;;;;4981184;28;95606;-54
2021/05/07 12:21:22;;;;;;;12.73;7.00;;;18.20;79.90;;;;;;4968059;28;95984;-55
2021/05/07 12:23:53;;;;;;;11.10;6.93;;;18.20;79.80;;;;;;4965675;28;97857;-55
2021/05/07 12:26:26;;;;;;;10.10;7.18;;;18.20;79.90;;;;;;4979704;28;95209;-54
2021/05/07 12:29:00;;;;;;;11.27;7.05;;;18.20;80.00;;;;;;4980480;28;96637;-56
2021/05/07 12:31:31;;;;;;;12.32;7.40;;;18.20;80.00;;;;;;4973375;28;96210;-55
2021/05/07 12:34:13;;;;;;;11.82;7.60;;;18.20;80.00;;;;;;4966803;28;95317;-55
2021/05/07 12:36:56;;;;;;;17.60;8.23;;;18.10;80.00;;;;;;4982551;28;95879;-56
2021/05/07 12:39:28;;;;;;;11.50;7.25;;;18.10;79.80;;;;;;4965895;28;95361;-55
2021/05/07 12:42:00;;;;;;;10.25;6.53;;;18.00;79.90;;;;;;4969527;28;95949;-53
2021/05/07 12:44:31;;;;;;;11.63;7.03;;;18.00;80.00;;;;;;4966623;28;95887;-56
2021/05/07 12:47:01;;;;;;;9.30;6.35;;;18.00;80.00;;;;;;4965559;28;95981;-52
2021/05/07 12:49:32;;;;;;;9.90;6.78;;;18.00;80.00;;;;;;4968116;28;95813;-53
2021/05/07 12:52:03;;;;;;;9.95;7.25;;;18.00;80.10;;;;;;4968457;28;99152;-55
2021/05/07 12:54:33;;;;;;;10.60;6.50;;;18.00;80.10;;;;;;4968238;28;95321;-55
2021/05/07 12:57:04;;;;;;;9.50;6.60;;;17.90;80.20;;;;;;4966082;28;95525;-53
2021/05/07 12:59:35;;;;;;;10.20;7.70;;;17.90;80.20;;;;;;4966796;28;95733;-53
2021/05/07 13:02:05;;;;;;;13.80;7.30;;;17.80;80.20;;;;;;4961127;28;102997;-56
2021/05/07 13:04:37;;;;;;;13.77;8.02;;;17.80;80.30;;;;;;4980173;28;95739;-53
2021/05/07 13:07:06;;;;;;;14.55;8.48;;;17.80;80.30;;;;;;4972871;28;95741;-54
2021/05/07 13:09:36;;;;;;;10.18;6.82;;;17.80;80.30;;;;;;4971863;28;95706;-51
2021/05/07 13:12:07;;;;;;;11.38;7.00;;;17.80;80.30;;;;;;4970153;28;96625;-50
2021/05/07 13:14:38;;;;;;;9.35;6.50;;;17.70;80.30;;;;;;4967135;28;95645;-52
2021/05/07 13:17:19;;;;;;;12.05;6.55;;;17.80;80.20;;;;;;4959071;28;96685;-54